Terminal Aerodrome Forecast
Issued by NWS

Home | Current Version | Previous Version | Graphics & Text | Print | Product List | Glossary On
Versions: 1 2 3 4 5 6 7 8 9 10 11 12 13 14
000
FTUS43 KGRB 011138
TAFATW
TAF
KATW 011138Z 0112/0212 27006KT P6SM SCT080
     FM011500 28012G18KT P6SM SCT060
     FM020000 23005KT P6SM SCT120
      TEMPO 0204/0208 BKN120
     FM020800 22006KT P6SM SCT040 OVC120 WS010/24040KT PROB30
      0208/0212 5SM -SHRA BR BKN040=

USA.gov is the U.S. government's official web portal to all federal, state and local government web resources and services.